Flight Track Log - Related Links

Times and Time Zones

All times are in EDT time to prevent confusion due to time zone crossing. See the TAM3518 flight status page for this flight to view local times or setup timezone preferences in your user account.

Time Position Orientation Groundspeed Altitude Reporting Facility
EDT Latitude Longitude Course Direction KTS MPH feet Rate Location/Type
Thu 07:42:00 AM -18.6516 -43.1804 300° West  Level Estimated
Thu 07:43:00 AM -18.6076 -43.2578 301° West  Level Estimated
Thu 07:44:00 AM -18.5635 -43.3352 301° West  Level Estimated
Thu 07:45:00 AM -18.5194 -43.4126 301° West  Level Estimated
Thu 07:46:00 AM -18.4753 -43.4899 301° West  Level Estimated
Thu 07:47:00 AM -18.4311 -43.5672 301° West  Level Estimated
Thu 07:48:00 AM -18.3869 -43.6444 301° West  Level Estimated
Thu 07:49:00 AM -18.3427 -43.7216 301° West  Level Estimated
Thu 07:50:00 AM -18.2984 -43.7987 301° West  Level Estimated
Thu 07:51:00 AM -18.2541 -43.8758 301° West  Level Estimated
Thu 07:52:00 AM -18.2098 -43.9529 301° West  Level Estimated
Thu 07:53:00 AM -18.1654 -44.0299 301° West  Level Estimated
Thu 07:54:00 AM -18.1211 -44.1069 301° West  Level Estimated
Thu 07:55:00 AM -18.0767 -44.1839 301° West  Level Estimated
Thu 07:56:00 AM -18.0322 -44.2608 301° West  Level Estimated
Thu 07:57:00 AM -17.9877 -44.3377 301° West  Level Estimated
Thu 07:58:00 AM -17.9432 -44.4145 301° West  Level Estimated
Thu 07:59:00 AM -17.8987 -44.4913 301° West  Level Estimated
Thu 08:00:00 AM -17.8541 -44.5681 301° West  Level Estimated
Thu 08:01:00 AM -17.8095 -44.6448 301° West  Level Estimated
Thu 08:02:00 AM -17.7649 -44.7215 301° West  Level Estimated
Thu 08:03:00 AM -17.7202 -44.7982 301° West  Level Estimated
Thu 08:04:00 AM -17.6755 -44.8748 301° West  Level Estimated
Thu 08:05:00 AM -17.6308 -44.9514 301° West  Level Estimated
Thu 08:06:00 AM -17.5861 -45.0279 302° West  Level Estimated
Thu 08:07:00 AM -17.5413 -45.1044 302° West  Level Estimated
Thu 08:08:00 AM -17.4965 -45.1808 302° West  Level Estimated
Thu 08:09:00 AM -17.4517 -45.2573 302° West  Level Estimated
Thu 08:10:00 AM -17.4068 -45.3336 302° West  Level Estimated
Thu 08:11:00 AM -17.3619 -45.4100 302° West  Level Estimated
Thu 08:12:00 AM -17.3170 -45.4863 302° West  Level Estimated
Thu 08:13:00 AM -17.2720 -45.5626 302° West  Level Estimated
Thu 08:14:00 AM -17.2271 -45.6388 302° West  Level Estimated
Thu 08:15:00 AM -17.1821 -45.7150 302° West  Level Estimated
Thu 08:16:00 AM -17.1370 -45.7912 302° West  Level Estimated
Thu 08:17:00 AM -17.0920 -45.8673 302° West  Level Estimated
Thu 08:18:00 AM -17.0469 -45.9434 302° West  Level Estimated
Thu 08:19:00 AM -17.0018 -46.0194 302° West  Level Estimated
Thu 08:20:00 AM -16.9566 -46.0954 302° West  Level Estimated
Thu 08:21:00 AM -16.9114 -46.1714 302° West  Level Estimated
Thu 08:22:00 AM -16.8662 -46.2473 302° West  Level Estimated
Thu 08:23:00 AM -16.8210 -46.3232 302° West  Level Estimated
Thu 08:24:00 AM -16.7757 -46.3991 302° West  Level Estimated
Thu 08:25:00 AM -16.7304 -46.4749 302° West  Level Estimated
Thu 08:26:00 AM -16.6851 -46.5507 302° West  Level Estimated
Thu 08:27:00 AM -16.6398 -46.6265 302° West  Level Estimated
Thu 08:28:00 AM -16.5944 -46.7022 302° West  Level Estimated
Thu 08:29:00 AM -16.5490 -46.7779 302° West  Level Estimated
Thu 08:30:00 AM -16.5036 -46.8536 302° West  Level Estimated
Thu 08:31:00 AM -16.4581 -46.9292 302° West  Level Estimated
Thu 08:32:00 AM -16.4126 -47.0048 302° West  Level Estimated
Thu 08:33:00 AM -16.3671 -47.0803 302° West  Level Estimated
Thu 08:34:00 AM -16.3216 -47.1558 302° West  Level Estimated
Thu 08:35:00 AM -16.2761 -47.2313 302° West  Level Estimated
Thu 08:36:00 AM -16.2305 -47.3067 302° West  Level Estimated
Thu 08:37:00 AM -16.1849 -47.3821 302° West  Level Estimated
Thu 08:38:00 AM -16.1392 -47.4575 302° West  Level Estimated
Thu 08:39:00 AM -16.0935 -47.5328 302° West  Level Estimated
Thu 08:40:00 AM -16.0478 -47.6082 302° West  Level Estimated
Thu 08:41:00 AM -16.0021 -47.6834 302° West  Level Estimated
Thu 08:42:00 AM -15.9564 -47.7587 302° West  Level Estimated
Thu 08:43:00 AM -15.9106 -47.8339 302° West  Level Estimated
Thu 08:44:00 AM -15.8648 -47.9090 302° West  Level Estimated
Thu 08:45:00 AM -15.8626 -47.9127 302° West  Level Estimated
Thu 08:46:00 AM -15.8626 -47.9127 128° Southeast  Level Estimated
Thu 08:47:00 AM -15.8626 -47.9127 128° Southeast  Level Estimated
Thu 08:48:00 AM -15.8626 -47.9127 128° Southeast  Level Estimated
Thu 08:49:00 AM -15.8626 -47.9127 128° Southeast  Level Estimated
Thu 08:50:00 AM -15.8626 -47.9127 128° Southeast  Level Estimated
Thu 08:51:00 AM -15.8626 -47.9127 128° Southeast  Level Estimated
Thu 08:52:00 AM -15.8626 -47.9127 128° Southeast  Level Estimated
Thu 08:53:00 AM -15.8626 -47.9127 128° Southeast  Level Estimated
Thu 08:54:00 AM -15.8626 -47.9127 128° Southeast  Level Estimated
Thu 08:55:00 AM -15.8626 -47.9127 128° Southeast  Level Estimated
Thu 08:56:00 AM -15.8626 -47.9127 128° Southeast  Level Estimated
Thu 08:57:00 AM -15.8626 -47.9127 128° Southeast  Level Estimated
Thu 08:58:00 AM -15.8626 -47.9127 128° Southeast  Level Estimated
Thu 08:59:00 AM -15.8626 -47.9127 128° Southeast  Level Estimated
Thu 09:00:00 AM -15.8626 -47.9127 128° Southeast  Level Estimated

Login

Don't have an account? Register now (free) for customized features, flight alerts, and more!